sensor_id;sensor_type;location;lat;lon;timestamp;pressure;altitude;pressure_sealevel;temperature;humidity
7754;BME280;3921;42.266;23.122;2023-04-28T00:02:00;95780.88;;;9.81;50.00
7754;BME280;3921;42.266;23.122;2023-04-28T00:04:27;95785.88;;;9.70;50.82
7754;BME280;3921;42.266;23.122;2023-04-28T00:06:54;95593.34;;;8.55;50.48
7754;BME280;3921;42.266;23.122;2023-04-28T00:09:21;95827.75;;;9.93;50.33
7754;BME280;3921;42.266;23.122;2023-04-28T00:11:48;95824.34;;;9.84;50.59
7754;BME280;3921;42.266;23.122;2023-04-28T00:14:17;95849.50;;;9.94;51.51
7754;BME280;3921;42.266;23.122;2023-04-28T00:16:44;95862.91;;;10.05;51.11
7754;BME280;3921;42.266;23.122;2023-04-28T00:19:13;95558.91;;;8.12;50.37
7754;BME280;3921;42.266;23.122;2023-04-28T00:21:46;95877.13;;;10.06;50.46
7754;BME280;3921;42.266;23.122;2023-04-28T00:24:13;95633.38;;;8.50;50.86
7754;BME280;3921;42.266;23.122;2023-04-28T00:26:52;95535.53;;;8.10;50.79
7754;BME280;3921;42.266;23.122;2023-04-28T00:29:30;95635.09;;;8.57;50.19
7754;BME280;3921;42.266;23.122;2023-04-28T00:31:57;95938.34;;;10.42;50.75
7754;BME280;3921;42.266;23.122;2023-04-28T00:34:24;95497.75;;;7.61;50.70
7754;BME280;3921;42.266;23.122;2023-04-28T00:36:51;95645.06;;;8.51;50.36
7754;BME280;3921;42.266;23.122;2023-04-28T00:39:18;95841.00;;;9.56;50.58
7754;BME280;3921;42.266;23.122;2023-04-28T00:41:45;95922.34;;;10.12;50.41
7754;BME280;3921;42.266;23.122;2023-04-28T00:44:12;95894.59;;;9.71;50.54
7754;BME280;3921;42.266;23.122;2023-04-28T00:46:40;95885.38;;;9.65;51.18
7754;BME280;3921;42.266;23.122;2023-04-28T00:49:08;95782.28;;;9.04;51.12
7754;BME280;3921;42.266;23.122;2023-04-28T00:51:35;95913.91;;;9.89;51.06
7754;BME280;3921;42.266;23.122;2023-04-28T00:54:03;95526.81;;;7.41;50.41
7754;BME280;3921;42.266;23.122;2023-04-28T00:56:42;95927.25;;;9.78;50.79
7754;BME280;3921;42.266;23.122;2023-04-28T00:59:09;95705.84;;;8.27;51.49
7754;BME280;3921;42.266;23.122;2023-04-28T01:01:40;95798.91;;;8.88;51.22
7754;BME280;3921;42.266;23.122;2023-04-28T01:04:08;95443.81;;;6.68;50.48
7754;BME280;3921;42.266;23.122;2023-04-28T01:06:35;95655.59;;;7.98;50.91
7754;BME280;3921;42.266;23.122;2023-04-28T01:09:03;95829.88;;;8.98;50.74
7754;BME280;3921;42.266;23.122;2023-04-28T01:11:31;95756.06;;;8.47;51.03
7754;BME280;3921;42.266;23.122;2023-04-28T01:13:58;95620.25;;;7.57;51.12
7754;BME280;3921;42.266;23.122;2023-04-28T01:16:26;95904.19;;;8.93;51.47
7754;BME280;3921;42.266;23.122;2023-04-28T01:18:54;95892.63;;;9.13;51.70
7754;BME280;3921;42.266;23.122;2023-04-28T01:21:29;95440.22;;;6.39;51.26
7754;BME280;3921;42.266;23.122;2023-04-28T01:23:58;95915.38;;;9.42;50.87
7754;BME280;3921;42.266;23.122;2023-04-28T01:26:26;95431.97;;;6.45;51.48
7754;BME280;3921;42.266;23.122;2023-04-28T01:28:53;95644.50;;;7.64;50.96
7754;BME280;3921;42.266;23.122;2023-04-28T01:31:20;95977.34;;;9.62;51.31
7754;BME280;3921;42.266;23.122;2023-04-28T01:33:47;95873.22;;;8.88;51.65
7754;BME280;3921;42.266;23.122;2023-04-28T01:36:14;95733.97;;;7.97;50.98
7754;BME280;3921;42.266;23.122;2023-04-28T01:38:41;95318.66;;;5.44;51.49
7754;BME280;3921;42.266;23.122;2023-04-28T01:41:09;95419.78;;;5.92;52.06
7754;BME280;3921;42.266;23.122;2023-04-28T01:43:36;95872.19;;;8.58;52.11
7754;BME280;3921;42.266;23.122;2023-04-28T01:46:03;95615.66;;;7.08;51.63
7754;BME280;3921;42.266;23.122;2023-04-28T01:48:31;95734.44;;;7.56;52.29
7754;BME280;3921;42.266;23.122;2023-04-28T01:50:58;95973.59;;;9.01;52.32
7754;BME280;3921;42.266;23.122;2023-04-28T01:53:25;95639.63;;;6.89;52.46
7754;BME280;3921;42.266;23.122;2023-04-28T01:55:52;95822.34;;;7.94;52.95
7754;BME280;3921;42.266;23.122;2023-04-28T01:58:21;95761.00;;;7.45;53.05
7754;BME280;3921;42.266;23.122;2023-04-28T02:00:48;95891.59;;;7.95;53.30
7754;BME280;3921;42.266;23.122;2023-04-28T02:03:15;95462.44;;;5.50;53.31
7754;BME280;3921;42.266;23.122;2023-04-28T02:05:42;95821.84;;;7.45;53.62
7754;BME280;3921;42.266;23.122;2023-04-28T02:08:09;95946.81;;;8.12;54.24
7754;BME280;3921;42.266;23.122;2023-04-28T02:10:36;95659.00;;;6.39;54.07
7754;BME280;3921;42.266;23.122;2023-04-28T02:13:03;95892.88;;;7.61;54.34
7754;BME280;3921;42.266;23.122;2023-04-28T02:15:33;95680.78;;;6.49;54.50
7754;BME280;3921;42.266;23.122;2023-04-28T02:18:00;95773.91;;;7.07;53.77
7754;BME280;3921;42.266;23.122;2023-04-28T02:20:27;95785.34;;;6.90;54.70
7754;BME280;3921;42.266;23.122;2023-04-28T02:22:54;95905.63;;;7.83;54.87
7754;BME280;3921;42.266;23.122;2023-04-28T02:25:21;95778.84;;;7.01;54.24
7754;BME280;3921;42.266;23.122;2023-04-28T02:27:48;95932.50;;;7.99;54.15
7754;BME280;3921;42.266;23.122;2023-04-28T02:30:15;95892.16;;;7.70;53.86
7754;BME280;3921;42.266;23.122;2023-04-28T02:32:44;95725.88;;;6.63;54.94
7754;BME280;3921;42.266;23.122;2023-04-28T02:35:11;95888.81;;;7.71;54.07
7754;BME280;3921;42.266;23.122;2023-04-28T02:37:38;95580.94;;;5.85;54.17
7754;BME280;3921;42.266;23.122;2023-04-28T02:40:06;95894.50;;;7.58;54.55
7754;BME280;3921;42.266;23.122;2023-04-28T02:42:33;95886.75;;;7.39;54.75
7754;BME280;3921;42.266;23.122;2023-04-28T02:45:00;95930.38;;;7.61;55.06
7754;BME280;3921;42.266;23.122;2023-04-28T02:47:27;95912.66;;;7.44;54.54
7754;BME280;3921;42.266;23.122;2023-04-28T02:49:55;95892.56;;;7.35;54.76
7754;BME280;3921;42.266;23.122;2023-04-28T02:52:22;95772.44;;;6.59;54.78
7754;BME280;3921;42.266;23.122;2023-04-28T02:54:49;95575.31;;;5.43;54.79
7754;BME280;3921;42.266;23.122;2023-04-28T02:57:19;95990.06;;;7.99;54.72
7754;BME280;3921;42.266;23.122;2023-04-28T02:59:46;95907.63;;;7.40;54.48
7754;BME280;3921;42.266;23.122;2023-04-28T03:02:13;95902.50;;;7.34;54.71
7754;BME280;3921;42.266;23.122;2023-04-28T03:04:40;95927.47;;;7.31;55.03
7754;BME280;3921;42.266;23.122;2023-04-28T03:07:08;95915.91;;;7.37;54.91
7754;BME280;3921;42.266;23.122;2023-04-28T03:09:35;95796.47;;;6.53;54.74
7754;BME280;3921;42.266;23.122;2023-04-28T03:12:05;95796.44;;;6.48;54.91
7754;BME280;3921;42.266;23.122;2023-04-28T03:14:32;95925.75;;;7.28;54.83
7754;BME280;3921;42.266;23.122;2023-04-28T03:16:59;95885.44;;;7.02;54.58
7754;BME280;3921;42.266;23.122;2023-04-28T03:19:28;96021.56;;;7.85;55.30
7754;BME280;3921;42.266;23.122;2023-04-28T03:22:05;95817.81;;;6.34;55.15
7754;BME280;3921;42.266;23.122;2023-04-28T03:24:33;95858.75;;;6.45;54.88
7754;BME280;3921;42.266;23.122;2023-04-28T03:27:03;96005.78;;;7.30;55.60
7754;BME280;3921;42.266;23.122;2023-04-28T03:29:33;95929.31;;;6.85;55.84
7754;BME280;3921;42.266;23.122;2023-04-28T03:32:00;95930.16;;;6.85;55.92
7754;BME280;3921;42.266;23.122;2023-04-28T03:34:27;95755.78;;;5.55;56.07
7754;BME280;3921;42.266;23.122;2023-04-28T03:36:55;96032.72;;;7.46;55.59
7754;BME280;3921;42.266;23.122;2023-04-28T03:39:22;95951.78;;;6.83;55.15
7754;BME280;3921;42.266;23.122;2023-04-28T03:41:51;95799.47;;;5.83;55.80
7754;BME280;3921;42.266;23.122;2023-04-28T03:44:18;96070.25;;;7.49;55.51
7754;BME280;3921;42.266;23.122;2023-04-28T03:46:46;95957.69;;;6.88;55.35
7754;BME280;3921;42.266;23.122;2023-04-28T03:49:14;95954.47;;;6.97;55.05
7754;BME280;3921;42.266;23.122;2023-04-28T03:51:57;95947.84;;;6.99;54.89
7754;BME280;3921;42.266;23.122;2023-04-28T03:54:25;95808.31;;;6.11;54.87
7754;BME280;3921;42.266;23.122;2023-04-28T03:56:53;96079.00;;;7.79;55.12
7754;BME280;3921;42.266;23.122;2023-04-28T03:59:22;95785.31;;;5.79;54.73
7754;BME280;3921;42.266;23.122;2023-04-28T04:01:49;96024.13;;;7.29;54.54
7754;BME280;3921;42.266;23.122;2023-04-28T04:04:19;95983.69;;;7.00;54.61
7754;BME280;3921;42.266;23.122;2023-04-28T04:06:48;96004.69;;;7.12;54.72
7754;BME280;3921;42.266;23.122;2023-04-28T04:09:15;96120.44;;;7.60;55.09
7754;BME280;3921;42.266;23.122;2023-04-28T04:11:42;96019.59;;;7.08;55.36
7754;BME280;3921;42.266;23.122;2023-04-28T04:14:11;96026.28;;;7.09;55.18
7754;BME280;3921;42.266;23.122;2023-04-28T04:16:38;95961.59;;;6.73;55.27
7754;BME280;3921;42.266;23.122;2023-04-28T04:19:05;95939.59;;;6.53;55.42
7754;BME280;3921;42.266;23.122;2023-04-28T04:21:32;96003.69;;;7.01;55.55
7754;BME280;3921;42.266;23.122;2023-04-28T04:23:59;96042.25;;;7.17;55.04
7754;BME280;3921;42.266;23.122;2023-04-28T04:26:26;95971.44;;;6.65;55.54
7754;BME280;3921;42.266;23.122;2023-04-28T04:28:53;95964.00;;;6.68;55.63
7754;BME280;3921;42.266;23.122;2023-04-28T04:31:21;96035.63;;;7.21;54.98
7754;BME280;3921;42.266;23.122;2023-04-28T04:33:48;95711.91;;;5.17;54.85
7754;BME280;3921;42.266;23.122;2023-04-28T04:36:16;95818.72;;;5.91;54.60
7754;BME280;3921;42.266;23.122;2023-04-28T04:38:43;95865.94;;;6.25;55.52
7754;BME280;3921;42.266;23.122;2023-04-28T04:41:12;95917.22;;;6.59;55.30
7754;BME280;3921;42.266;23.122;2023-04-28T04:43:39;96116.78;;;7.94;55.11
7754;BME280;3921;42.266;23.122;2023-04-28T04:46:06;96003.91;;;7.16;54.60
7754;BME280;3921;42.266;23.122;2023-04-28T04:48:35;95689.72;;;5.29;54.41
7754;BME280;3921;42.266;23.122;2023-04-28T04:51:02;96004.13;;;7.30;54.85
7754;BME280;3921;42.266;23.122;2023-04-28T04:53:31;95973.91;;;7.16;54.64
7754;BME280;3921;42.266;23.122;2023-04-28T04:55:58;96015.16;;;7.43;54.82
7754;BME280;3921;42.266;23.122;2023-04-28T04:58:25;95984.66;;;7.09;54.06
7754;BME280;3921;42.266;23.122;2023-04-28T05:00:52;95805.88;;;6.15;54.10
7754;BME280;3921;42.266;23.122;2023-04-28T05:03:19;96030.97;;;7.42;54.55
7754;BME280;3921;42.266;23.122;2023-04-28T05:05:48;96112.59;;;7.91;54.57
7754;BME280;3921;42.266;23.122;2023-04-28T05:08:15;96023.50;;;7.45;54.10
7754;BME280;3921;42.266;23.122;2023-04-28T05:10:42;95977.88;;;7.04;54.04
7754;BME280;3921;42.266;23.122;2023-04-28T05:13:09;96028.56;;;7.50;55.16
7754;BME280;3921;42.266;23.122;2023-04-28T05:15:37;96070.59;;;7.72;54.95
7754;BME280;3921;42.266;23.122;2023-04-28T05:18:05;95991.41;;;7.16;55.23
7754;BME280;3921;42.266;23.122;2023-04-28T05:20:35;95656.44;;;5.27;55.08
7754;BME280;3921;42.266;23.122;2023-04-28T05:23:04;96130.66;;;8.33;54.65
7754;BME280;3921;42.266;23.122;2023-04-28T05:25:31;95886.28;;;7.03;54.86
7754;BME280;3921;42.266;23.122;2023-04-28T05:27:58;95821.25;;;6.42;55.14
7754;BME280;3921;42.266;23.122;2023-04-28T05:30:29;96031.84;;;8.05;54.67
7754;BME280;3921;42.266;23.122;2023-04-28T05:32:56;95994.22;;;7.98;54.64
7754;BME280;3921;42.266;23.122;2023-04-28T05:35:24;95991.69;;;7.97;53.90
7754;BME280;3921;42.266;23.122;2023-04-28T05:37:51;95633.91;;;5.71;54.08
7754;BME280;3921;42.266;23.122;2023-04-28T05:40:20;96005.34;;;8.20;53.64
7754;BME280;3921;42.266;23.122;2023-04-28T05:42:47;96055.78;;;8.51;53.67
7754;BME280;3921;42.266;23.122;2023-04-28T05:45:14;96042.44;;;8.52;53.43
7754;BME280;3921;42.266;23.122;2023-04-28T05:47:41;96023.19;;;8.46;53.65
7754;BME280;3921;42.266;23.122;2023-04-28T05:50:09;96119.88;;;9.08;54.65
7754;BME280;3921;42.266;23.122;2023-04-28T05:52:36;96082.09;;;8.90;53.96
7754;BME280;3921;42.266;23.122;2023-04-28T05:55:03;95913.19;;;7.86;53.77
7754;BME280;3921;42.266;23.122;2023-04-28T05:57:32;95886.47;;;7.83;53.69
7754;BME280;3921;42.266;23.122;2023-04-28T05:59:59;95962.19;;;8.41;53.87
7754;BME280;3921;42.266;23.122;2023-04-28T06:02:26;96033.66;;;8.89;53.53
7754;BME280;3921;42.266;23.122;2023-04-28T06:04:53;96004.25;;;8.74;53.32
7754;BME280;3921;42.266;23.122;2023-04-28T06:07:20;96003.53;;;8.83;53.61
7754;BME280;3921;42.266;23.122;2023-04-28T06:09:47;95932.97;;;8.39;53.46
7754;BME280;3921;42.266;23.122;2023-04-28T06:12:14;95934.63;;;8.41;53.37
7754;BME280;3921;42.266;23.122;2023-04-28T06:14:43;95850.72;;;7.95;52.74
7754;BME280;3921;42.266;23.122;2023-04-28T06:17:10;96039.81;;;9.26;52.17
7754;BME280;3921;42.266;23.122;2023-04-28T06:19:37;96013.91;;;9.27;51.94
7754;BME280;3921;42.266;23.122;2023-04-28T06:22:04;95882.09;;;8.47;51.04
7754;BME280;3921;42.266;23.122;2023-04-28T06:24:31;95989.69;;;9.31;50.31
7754;BME280;3921;42.266;23.122;2023-04-28T06:26:58;95686.81;;;7.44;49.00
7754;BME280;3921;42.266;23.122;2023-04-28T06:29:25;95647.38;;;7.15;48.42
7754;BME280;3921;42.266;23.122;2023-04-28T06:31:53;96027.47;;;9.54;48.64
7754;BME280;3921;42.266;23.122;2023-04-28T06:34:23;96089.69;;;10.05;48.52
7754;BME280;3921;42.266;23.122;2023-04-28T06:36:51;96038.47;;;9.70;48.04
7754;BME280;3921;42.266;23.122;2023-04-28T06:39:19;95793.59;;;8.41;48.10
7754;BME280;3921;42.266;23.122;2023-04-28T06:41:46;96094.03;;;10.28;47.80
7754;BME280;3921;42.266;23.122;2023-04-28T06:44:13;95812.00;;;8.47;47.43
7754;BME280;3921;42.266;23.122;2023-04-28T06:46:40;95903.53;;;9.18;47.02
7754;BME280;3921;42.266;23.122;2023-04-28T06:49:08;96005.88;;;9.77;47.05
7754;BME280;3921;42.266;23.122;2023-04-28T06:51:35;96115.06;;;10.44;46.80
7754;BME280;3921;42.266;23.122;2023-04-28T06:54:03;96026.91;;;10.01;46.15
7754;BME280;3921;42.266;23.122;2023-04-28T06:56:30;95831.50;;;8.93;45.26
7754;BME280;3921;42.266;23.122;2023-04-28T06:58:57;95907.75;;;9.28;45.04
7754;BME280;3921;42.266;23.122;2023-04-28T07:01:24;95993.44;;;9.99;45.24
7754;BME280;3921;42.266;23.122;2023-04-28T07:03:51;96014.41;;;10.10;45.00
7754;BME280;3921;42.266;23.122;2023-04-28T07:06:20;95866.78;;;9.23;44.79
7754;BME280;3921;42.266;23.122;2023-04-28T07:08:47;95896.16;;;9.49;44.51
7754;BME280;3921;42.266;23.122;2023-04-28T07:11:14;95749.47;;;8.60;44.79
7754;BME280;3921;42.266;23.122;2023-04-28T07:13:44;95618.72;;;7.72;44.67
7754;BME280;3921;42.266;23.122;2023-04-28T07:16:37;95693.28;;;8.22;44.62
7754;BME280;3921;42.266;23.122;2023-04-28T07:19:04;95849.28;;;9.39;45.06
7754;BME280;3921;42.266;23.122;2023-04-28T07:21:33;95666.56;;;8.17;44.30
7754;BME280;3921;42.266;23.122;2023-04-28T07:24:00;95930.63;;;9.88;43.67
7754;BME280;3921;42.266;23.122;2023-04-28T07:26:35;95915.56;;;9.90;43.13
7754;BME280;3921;42.266;23.122;2023-04-28T07:29:04;95566.22;;;7.79;43.98
7754;BME280;3921;42.266;23.122;2023-04-28T07:31:31;95831.72;;;9.29;43.85
7754;BME280;3921;42.266;23.122;2023-04-28T07:33:58;95959.16;;;10.07;43.36
7754;BME280;3921;42.266;23.122;2023-04-28T07:36:25;95807.41;;;9.15;42.19
7754;BME280;3921;42.266;23.122;2023-04-28T07:38:53;96021.22;;;10.34;42.17
7754;BME280;3921;42.266;23.122;2023-04-28T07:41:20;95825.88;;;9.38;41.79
7754;BME280;3921;42.266;23.122;2023-04-28T07:43:48;95798.25;;;9.24;42.09
7754;BME280;3921;42.266;23.122;2023-04-28T07:46:15;95739.63;;;8.93;42.35
7754;BME280;3921;42.266;23.122;2023-04-28T07:48:42;95700.28;;;8.75;41.22
7754;BME280;3921;42.266;23.122;2023-04-28T07:51:09;95784.06;;;9.23;42.30
7754;BME280;3921;42.266;23.122;2023-04-28T07:53:36;96069.97;;;10.99;42.52
7754;BME280;3921;42.266;23.122;2023-04-28T07:56:05;95913.13;;;10.05;41.88
7754;BME280;3921;42.266;23.122;2023-04-28T07:58:32;95924.03;;;10.16;41.58
7754;BME280;3921;42.266;23.122;2023-04-28T08:00:59;95998.69;;;10.66;42.03
7754;BME280;3921;42.266;23.122;2023-04-28T08:03:26;95839.38;;;9.72;42.80
7754;BME280;3921;42.266;23.122;2023-04-28T08:05:53;95623.34;;;8.45;43.03
7754;BME280;3921;42.266;23.122;2023-04-28T08:08:20;95810.13;;;9.71;43.08
7754;BME280;3921;42.266;23.122;2023-04-28T08:10:47;95707.94;;;9.09;43.35
7754;BME280;3921;42.266;23.122;2023-04-28T08:13:16;95718.03;;;9.30;43.51
7754;BME280;3921;42.266;23.122;2023-04-28T08:15:43;96009.66;;;11.15;43.71
7754;BME280;3921;42.266;23.122;2023-04-28T08:18:11;95758.25;;;9.60;43.36
7754;BME280;3921;42.266;23.122;2023-04-28T08:20:37;95986.16;;;10.87;42.87
7754;BME280;3921;42.266;23.122;2023-04-28T08:23:05;95602.53;;;8.65;42.43
7754;BME280;3921;42.266;23.122;2023-04-28T08:25:32;95923.31;;;10.69;41.86
7754;BME280;3921;42.266;23.122;2023-04-28T08:27:59;95737.34;;;9.68;41.96
7754;BME280;3921;42.266;23.122;2023-04-28T08:30:29;95847.06;;;10.35;42.93
7754;BME280;3921;42.266;23.122;2023-04-28T08:32:56;95973.59;;;11.12;43.36
7754;BME280;3921;42.266;23.122;2023-04-28T08:35:23;95904.91;;;10.84;42.47
7754;BME280;3921;42.266;23.122;2023-04-28T08:37:51;95959.34;;;11.03;42.57
7754;BME280;3921;42.266;23.122;2023-04-28T08:40:18;95899.00;;;10.89;41.96
7754;BME280;3921;42.266;23.122;2023-04-28T08:42:45;95899.84;;;10.75;42.24
7754;BME280;3921;42.266;23.122;2023-04-28T08:45:13;95961.88;;;11.25;42.60
7754;BME280;3921;42.266;23.122;2023-04-28T08:47:42;95932.50;;;11.28;42.56
7754;BME280;3921;42.266;23.122;2023-04-28T08:50:13;96035.63;;;11.89;43.10
7754;BME280;3921;42.266;23.122;2023-04-28T08:52:41;95969.41;;;11.31;42.79
7754;BME280;3921;42.266;23.122;2023-04-28T08:55:09;95674.59;;;9.62;42.50
7754;BME280;3921;42.266;23.122;2023-04-28T08:57:38;95961.00;;;11.39;42.12
7754;BME280;3921;42.266;23.122;2023-04-28T09:00:06;95966.84;;;11.57;42.24
7754;BME280;3921;42.266;23.122;2023-04-28T09:02:44;95886.41;;;11.19;41.02
7754;BME280;3921;42.266;23.122;2023-04-28T09:05:12;95632.81;;;9.72;40.97
7754;BME280;3921;42.266;23.122;2023-04-28T09:07:39;95568.41;;;9.26;41.35
7754;BME280;3921;42.266;23.122;2023-04-28T09:10:17;96033.00;;;12.20;41.31
7754;BME280;3921;42.266;23.122;2023-04-28T09:12:45;96036.34;;;12.23;39.79
7754;BME280;3921;42.266;23.122;2023-04-28T09:15:25;96001.97;;;12.10;39.66
7754;BME280;3921;42.266;23.122;2023-04-28T09:17:54;96026.25;;;12.31;39.39
7754;BME280;3921;42.266;23.122;2023-04-28T09:20:21;95999.41;;;12.21;39.37
7754;BME280;3921;42.266;23.122;2023-04-28T09:22:49;95724.78;;;10.60;39.25
7754;BME280;3921;42.266;23.122;2023-04-28T09:25:17;95858.69;;;11.41;39.47
7754;BME280;3921;42.266;23.122;2023-04-28T09:27:45;96004.44;;;12.26;36.29
7754;BME280;3921;42.266;23.122;2023-04-28T09:30:13;95975.94;;;12.10;35.61
7754;BME280;3921;42.266;23.122;2023-04-28T09:32:40;95932.38;;;11.88;36.08
7754;BME280;3921;42.266;23.122;2023-04-28T09:35:08;95805.94;;;11.12;36.46
7754;BME280;3921;42.266;23.122;2023-04-28T09:37:35;95902.13;;;11.91;36.78
7754;BME280;3921;42.266;23.122;2023-04-28T09:40:05;95947.34;;;12.20;37.26
7754;BME280;3921;42.266;23.122;2023-04-28T09:42:34;95922.97;;;12.25;36.74
7754;BME280;3921;42.266;23.122;2023-04-28T09:45:02;95900.34;;;12.14;36.80
7754;BME280;3921;42.266;23.122;2023-04-28T09:47:30;96026.81;;;12.85;35.87
7754;BME280;3921;42.266;23.122;2023-04-28T09:49:59;95990.63;;;12.91;36.50
7754;BME280;3921;42.266;23.122;2023-04-28T09:52:27;95798.09;;;11.84;37.23
7754;BME280;3921;42.266;23.122;2023-04-28T09:54:55;95941.91;;;12.86;37.80
7754;BME280;3921;42.266;23.122;2023-04-28T09:57:23;95949.31;;;13.06;36.18
7754;BME280;3921;42.266;23.122;2023-04-28T09:59:51;95762.81;;;11.90;36.36
7754;BME280;3921;42.266;23.122;2023-04-28T10:02:19;95532.06;;;10.77;36.92
7754;BME280;3921;42.266;23.122;2023-04-28T10:04:48;95694.72;;;12.04;36.66
7754;BME280;3921;42.266;23.122;2023-04-28T10:07:21;95662.03;;;11.98;37.13
7754;BME280;3921;42.266;23.122;2023-04-28T10:09:50;95788.06;;;12.87;36.50
7754;BME280;3921;42.266;23.122;2023-04-28T10:12:18;95646.81;;;12.09;36.56
7754;BME280;3921;42.266;23.122;2023-04-28T10:14:47;95927.28;;;14.04;36.78
7754;BME280;3921;42.266;23.122;2023-04-28T10:17:15;95902.13;;;13.97;36.32
7754;BME280;3921;42.266;23.122;2023-04-28T10:19:44;95752.44;;;13.15;36.18
7754;BME280;3921;42.266;23.122;2023-04-28T10:22:28;95857.34;;;14.08;34.23
7754;BME280;3921;42.266;23.122;2023-04-28T10:25:19;95862.13;;;14.28;33.23
7754;BME280;3921;42.266;23.122;2023-04-28T10:27:50;95736.69;;;13.67;31.60
7754;BME280;3921;42.266;23.122;2023-04-28T10:30:19;95829.84;;;14.45;31.88
7754;BME280;3921;42.266;23.122;2023-04-28T10:32:46;95950.94;;;15.19;32.47
7754;BME280;3921;42.266;23.122;2023-04-28T10:35:39;95932.19;;;15.32;33.04
7754;BME280;3921;42.266;23.122;2023-04-28T10:38:08;95800.94;;;14.61;33.66
7754;BME280;3921;42.266;23.122;2023-04-28T10:40:39;95935.13;;;15.56;34.08
7754;BME280;3921;42.266;23.122;2023-04-28T10:43:07;95932.44;;;15.66;32.86
7754;BME280;3921;42.266;23.122;2023-04-28T10:46:03;95923.69;;;15.83;31.39
7754;BME280;3921;42.266;23.122;2023-04-28T10:49:03;95921.59;;;16.03;31.80
7754;BME280;3921;42.266;23.122;2023-04-28T10:51:34;95783.69;;;15.30;32.48
7754;BME280;3921;42.266;23.122;2023-04-28T10:54:15;95803.47;;;15.53;32.12
7754;BME280;3921;42.266;23.122;2023-04-28T10:57:15;95901.66;;;16.27;32.57
7754;BME280;3921;42.266;23.122;2023-04-28T10:59:46;95815.56;;;15.83;33.06
7754;BME280;3921;42.266;23.122;2023-04-28T11:02:40;95905.34;;;16.52;33.11
7754;BME280;3921;42.266;23.122;2023-04-28T11:05:14;95808.34;;;16.04;31.95
7754;BME280;3921;42.266;23.122;2023-04-28T11:11:17;95877.63;;;16.80;30.95
7754;BME280;3921;42.266;23.122;2023-04-28T11:13:47;95770.13;;;16.13;31.27
7754;BME280;3921;42.266;23.122;2023-04-28T11:16:16;95885.69;;;16.97;30.06
7754;BME280;3921;42.266;23.122;2023-04-28T11:18:54;95878.03;;;16.99;31.00
7754;BME280;3921;42.266;23.122;2023-04-28T11:21:24;95812.84;;;16.65;26.73
7754;BME280;3921;42.266;23.122;2023-04-28T11:23:52;95598.66;;;15.40;27.53
7754;BME280;3921;42.266;23.122;2023-04-28T11:26:20;95460.34;;;14.65;27.50
7754;BME280;3921;42.266;23.122;2023-04-28T11:28:51;95625.50;;;15.85;28.90
7754;BME280;3921;42.266;23.122;2023-04-28T11:31:19;95805.31;;;16.98;29.99
7754;BME280;3921;42.266;23.122;2023-04-28T11:33:51;95861.19;;;17.60;26.86
7754;BME280;3921;42.266;23.122;2023-04-28T11:36:27;95849.16;;;17.67;26.11
7754;BME280;3921;42.266;23.122;2023-04-28T11:38:55;95862.47;;;17.76;26.30
7754;BME280;3921;42.266;23.122;2023-04-28T11:41:22;95602.59;;;16.22;27.90
7754;BME280;3921;42.266;23.122;2023-04-28T11:43:51;95776.31;;;17.38;28.95
7754;BME280;3921;42.266;23.122;2023-04-28T11:46:19;95694.34;;;17.02;30.02
7754;BME280;3921;42.266;23.122;2023-04-28T11:48:47;95455.47;;;15.63;29.47
7754;BME280;3921;42.266;23.122;2023-04-28T11:51:32;95762.38;;;17.51;28.32
7754;BME280;3921;42.266;23.122;2023-04-28T11:53:59;95611.88;;;16.85;28.95
7754;BME280;3921;42.266;23.122;2023-04-28T11:56:28;95434.78;;;15.80;29.07
7754;BME280;3921;42.266;23.122;2023-04-28T11:59:04;95707.75;;;17.64;27.04
7754;BME280;3921;42.266;23.122;2023-04-28T12:01:32;95709.25;;;17.71;25.93
7754;BME280;3921;42.266;23.122;2023-04-28T12:04:02;95721.38;;;17.91;26.66
7754;BME280;3921;42.266;23.122;2023-04-28T12:06:29;95496.78;;;16.58;26.58
7754;BME280;3921;42.266;23.122;2023-04-28T12:08:56;95686.22;;;17.77;27.36
7754;BME280;3921;42.266;23.122;2023-04-28T12:11:28;95712.59;;;18.01;26.66
7754;BME280;3921;42.266;23.122;2023-04-28T12:14:04;95784.50;;;18.60;27.09
7754;BME280;3921;42.266;23.122;2023-04-28T12:16:40;95777.69;;;18.60;27.45
7754;BME280;3921;42.266;23.122;2023-04-28T12:19:10;95787.28;;;18.78;26.99
7754;BME280;3921;42.266;23.122;2023-04-28T12:21:38;95691.59;;;18.21;26.98
7754;BME280;3921;42.266;23.122;2023-04-28T12:24:15;95753.72;;;18.67;26.55
7754;BME280;3921;42.266;23.122;2023-04-28T12:26:42;95798.50;;;18.99;26.05
7754;BME280;3921;42.266;23.122;2023-04-28T12:29:34;95773.31;;;19.15;26.07
7754;BME280;3921;42.266;23.122;2023-04-28T12:32:02;95597.38;;;18.01;26.30
7754;BME280;3921;42.266;23.122;2023-04-28T12:34:29;95589.16;;;17.93;26.01
7754;BME280;3921;42.266;23.122;2023-04-28T12:36:58;95673.31;;;18.62;25.88
7754;BME280;3921;42.266;23.122;2023-04-28T12:39:25;95660.19;;;18.74;25.07
7754;BME280;3921;42.266;23.122;2023-04-28T12:41:52;95686.91;;;18.86;25.32
7754;BME280;3921;42.266;23.122;2023-04-28T12:44:21;95640.34;;;18.58;26.21
7754;BME280;3921;42.266;23.122;2023-04-28T12:46:48;95448.13;;;17.28;25.77
7754;BME280;3921;42.266;23.122;2023-04-28T12:49:15;95631.59;;;18.66;26.03
7754;BME280;3921;42.266;23.122;2023-04-28T12:51:42;95809.25;;;19.56;25.60
7754;BME280;3921;42.266;23.122;2023-04-28T12:54:09;95645.03;;;18.94;24.54
7754;BME280;3921;42.266;23.122;2023-04-28T12:56:36;95762.38;;;19.60;25.16
7754;BME280;3921;42.266;23.122;2023-04-28T12:59:03;95577.66;;;18.56;25.87
7754;BME280;3921;42.266;23.122;2023-04-28T13:01:31;95511.41;;;18.11;25.27
7754;BME280;3921;42.266;23.122;2023-04-28T13:03:58;95724.34;;;19.54;26.04
7754;BME280;3921;42.266;23.122;2023-04-28T13:06:26;95701.72;;;19.23;26.65
7754;BME280;3921;42.266;23.122;2023-04-28T13:08:53;95639.47;;;19.30;26.62
7754;BME280;3921;42.266;23.122;2023-04-28T13:11:21;95567.69;;;18.97;26.19
7754;BME280;3921;42.266;23.122;2023-04-28T13:13:49;95698.31;;;19.91;25.60
7754;BME280;3921;42.266;23.122;2023-04-28T13:16:17;95654.53;;;19.58;25.51
7754;BME280;3921;42.266;23.122;2023-04-28T13:18:45;95676.28;;;19.68;25.48
7754;BME280;3921;42.266;23.122;2023-04-28T13:21:13;95561.28;;;18.87;25.76
7754;BME280;3921;42.266;23.122;2023-04-28T13:23:40;95485.97;;;18.57;25.36
7754;BME280;3921;42.266;23.122;2023-04-28T13:26:07;95473.97;;;18.61;25.97
7754;BME280;3921;42.266;23.122;2023-04-28T13:28:34;95651.59;;;19.69;26.25
7754;BME280;3921;42.266;23.122;2023-04-28T13:31:01;95639.69;;;19.69;26.02